Time;durP1;ratioP1;P1;durP2;ratioP2;P2;SDS_P1;SDS_P2;PMS_P1;PMS_P2;Temp;Humidity;BMP_temperature;BMP_pressure;BME280_temperature;BME280_humidity;BME280_pressure;Samples;Min_cycle;Max_cycle;Signal;HPM_P1;HPM_P2
2021/09/21 00:00:15;;;;;;;6.70;6.20;;;;;;;22.84;46.83;99122.78;5156857;27;20185;-52
2021/09/21 00:02:41;;;;;;;5.97;5.47;;;;;;;22.82;47.09;99119.47;5156807;27;20193;-52
2021/09/21 00:05:09;;;;;;;6.03;5.43;;;;;;;22.81;46.84;99115.13;5156709;27;20190;-52
2021/09/21 00:07:35;;;;;;;6.07;5.57;;;;;;;22.81;46.86;99112.47;5156673;27;20209;-54
2021/09/21 00:10:04;;;;;;;6.63;6.03;;;;;;;22.83;46.73;99119.25;5157034;27;20190;-52
2021/09/21 00:12:30;;;;;;;5.80;5.30;;;;;;;22.82;46.89;99111.47;5156908;27;20186;-53
2021/09/21 00:14:56;;;;;;;5.73;5.33;;;;;;;22.85;47.07;99102.31;5156615;27;20259;-52
2021/09/21 00:17:23;;;;;;;6.30;5.80;;;;;;;22.80;46.95;99097.53;5156607;27;20206;-52
2021/09/21 00:19:49;;;;;;;6.37;5.87;;;;;;;22.77;47.04;99098.69;5156493;27;20207;-51
2021/09/21 00:22:16;;;;;;;5.70;5.30;;;;;;;22.78;47.07;99107.50;5156903;27;20231;-52
2021/09/21 00:24:42;;;;;;;5.63;5.23;;;;;;;22.77;47.04;99098.69;5156348;27;20194;-52
2021/09/21 00:27:09;;;;;;;6.30;5.67;;;;;;;22.73;47.17;99101.84;5156184;27;20266;-52
2021/09/21 00:29:35;;;;;;;6.33;5.70;;;;;;;22.75;47.01;99099.84;5137714;27;20186;-52
2021/09/21 00:32:02;;;;;;;5.53;5.13;;;;;;;22.78;46.88;99110.16;5137656;27;20221;-53
2021/09/21 00:34:39;;;;;;;6.17;5.67;;;;;;;22.80;46.91;99124.13;5156269;27;20189;-52
2021/09/21 00:37:09;;;;;;;5.90;5.50;;;;;;;22.79;46.81;99135.78;5156599;27;20205;-53
2021/09/21 00:39:35;;;;;;;5.50;5.10;;;;;;;22.74;47.14;99140.75;5156328;27;20186;-52
2021/09/21 00:42:03;;;;;;;5.57;5.17;;;;;;;22.72;47.12;99140.09;5156582;27;20226;-52
2021/09/21 00:44:29;;;;;;;5.87;5.40;;;;;;;22.72;46.89;99137.44;5156525;27;20190;-52
2021/09/21 00:46:56;;;;;;;6.20;5.70;;;;;;;22.73;47.11;99129.31;5155830;27;20309;-54
2021/09/21 00:49:23;;;;;;;5.77;5.27;;;;;;;22.73;47.23;99128.47;5154953;27;20597;-54
2021/09/21 00:51:49;;;;;;;5.80;5.40;;;;;;;22.74;46.98;99125.66;5156109;27;20193;-54
2021/09/21 00:54:16;;;;;;;5.63;5.23;;;;;;;22.73;47.05;99131.13;5156331;27;20195;-53
2021/09/21 00:56:43;;;;;;;5.70;5.20;;;;;;;22.73;46.93;99141.78;5155750;27;20212;-54
2021/09/21 00:59:09;;;;;;;5.60;5.20;;;;;;;22.73;46.95;99144.44;5155737;27;20551;-53
2021/09/21 01:01:36;;;;;;;6.20;5.70;;;;;;;22.72;46.93;99140.94;5155962;27;20542;-52
2021/09/21 01:04:05;;;;;;;5.87;5.37;;;;;;;22.71;47.17;99141.97;5155710;27;20242;-53
2021/09/21 01:06:33;;;;;;;5.57;5.17;;;;;;;22.71;46.88;99147.28;5155515;27;20253;-52
2021/09/21 01:08:59;;;;;;;5.87;5.37;;;;;;;22.69;47.14;99150.09;5155675;27;20206;-52
2021/09/21 01:11:26;;;;;;;6.13;5.63;;;;;;;22.66;47.18;99149.59;5155468;27;20193;-53
2021/09/21 01:13:52;;;;;;;6.97;6.27;;;;;;;22.61;47.31;99147.47;5137107;27;20235;-51
2021/09/21 01:16:23;;;;;;;5.60;5.20;;;;;;;22.57;47.12;99140.81;5155241;27;20217;-52
2021/09/21 01:18:49;;;;;;;5.47;4.97;;;;;;;22.54;47.57;99144.66;5155337;27;20258;-54
2021/09/21 01:21:16;;;;;;;6.10;5.60;;;;;;;22.53;47.57;99134.19;5155561;27;20653;-52
2021/09/21 01:23:52;;;;;;;5.73;5.33;;;;;;;22.53;47.41;99139.50;5155237;27;20243;-52
2021/09/21 01:26:20;;;;;;;5.57;5.17;;;;;;;22.55;47.46;99132.19;5155236;27;20209;-52
2021/09/21 01:28:48;;;;;;;6.17;5.57;;;;;;;22.51;47.41;99136.19;5155655;27;20218;-54
2021/09/21 01:31:15;;;;;;;5.77;5.27;;;;;;;22.51;47.40;99141.50;5155175;27;20190;-52
2021/09/21 01:33:46;;;;;;;6.23;5.73;;;;;;;22.55;47.23;99142.81;5155220;27;20679;-54
2021/09/21 01:36:18;;;;;;;6.20;5.70;;;;;;;22.57;47.15;99145.31;5155251;27;20214;-52
2021/09/21 01:38:45;;;;;;;5.40;5.00;;;;;;;22.58;47.21;99154.97;5155313;27;20219;-52
2021/09/21 01:41:12;;;;;;;6.20;5.70;;;;;;;22.53;47.44;99158.97;5155000;27;20194;-53
2021/09/21 01:43:42;;;;;;;5.53;5.13;;;;;;;22.53;47.28;99158.13;5154921;27;20239;-51
2021/09/21 01:46:09;;;;;;;5.83;5.43;;;;;;;22.50;47.42;99156.63;5155091;27;20217;-52
2021/09/21 01:48:36;;;;;;;5.93;5.53;;;;;;;22.50;47.46;99161.13;5154781;27;20201;-52
2021/09/21 01:51:09;;;;;;;5.40;5.00;;;;;;;22.48;47.31;99161.28;5155379;27;20185;-52
2021/09/21 01:53:43;;;;;;;5.87;5.37;;;;;;;22.46;47.57;99154.47;5155089;27;20185;-51
2021/09/21 01:58:54;;;;;;;6.30;5.80;;;;;;;22.45;47.62;99153.63;5155048;27;20178;-52
2021/09/21 02:01:23;;;;;;;5.60;5.10;;;;;;;22.46;47.39;99151.81;5154500;27;20189;-53
2021/09/21 02:03:52;;;;;;;5.47;5.07;;;;;;;22.49;47.50;99156.81;5154646;27;20182;-52
2021/09/21 02:06:22;;;;;;;5.40;5.00;;;;;;;22.47;47.50;99153.47;5154545;27;20238;-52
2021/09/21 02:08:49;;;;;;;5.60;5.20;;;;;;;22.51;47.39;99152.97;5136481;27;20736;-52
2021/09/21 02:11:16;;;;;;;5.67;5.17;;;;;;;22.52;47.25;99162.63;5154612;27;20185;-52
2021/09/21 02:13:42;;;;;;;5.57;5.10;;;;;;;22.48;47.32;99155.16;5154551;27;20190;-53
2021/09/21 02:16:09;;;;;;;5.27;4.87;;;;;;;22.46;47.42;99152.63;5154491;27;20223;-52
2021/09/21 02:18:35;;;;;;;5.37;4.97;;;;;;;22.46;47.39;99149.16;5154584;27;20177;-52
2021/09/21 02:21:02;;;;;;;5.20;4.80;;;;;;;22.51;47.31;99158.28;5154522;27;20231;-52
2021/09/21 02:23:28;;;;;;;5.60;5.20;;;;;;;22.50;47.42;99163.78;5154545;27;20548;-52
2021/09/21 02:25:55;;;;;;;5.50;5.10;;;;;;;22.40;47.38;99159.44;5154407;27;20202;-51
2021/09/21 02:28:22;;;;;;;5.70;5.20;;;;;;;22.40;47.71;99162.09;5154355;27;20205;-52
2021/09/21 02:30:48;;;;;;;5.60;5.20;;;;;;;22.39;47.59;99165.78;5154665;27;20276;-55
2021/09/21 02:33:15;;;;;;;5.30;4.80;;;;;;;22.43;47.22;99173.41;5154392;27;20254;-52
2021/09/21 02:35:41;;;;;;;5.50;5.10;;;;;;;22.40;47.64;99167.44;5154518;27;20572;-56
2021/09/21 02:38:08;;;;;;;5.80;5.30;;;;;;;22.45;47.31;99169.59;5154321;27;20178;-54
2021/09/21 02:40:35;;;;;;;5.47;5.07;;;;;;;22.46;47.22;99171.25;5154323;27;20234;-53
2021/09/21 02:43:02;;;;;;;5.80;5.40;;;;;;;22.44;47.46;99172.44;5154332;27;20188;-54
2021/09/21 02:45:29;;;;;;;5.50;5.00;;;;;;;22.36;47.32;99176.75;5154358;27;20239;-52
2021/09/21 02:47:56;;;;;;;5.40;5.00;;;;;;;22.32;47.54;99175.44;5154093;27;20562;-54
2021/09/21 02:50:22;;;;;;;5.43;5.03;;;;;;;22.30;47.52;99174.78;5154570;27;20182;-54
2021/09/21 02:52:49;;;;;;;5.17;4.77;;;;;;;22.28;47.81;99182.09;5154229;27;20207;-52
2021/09/21 02:55:15;;;;;;;5.27;4.87;;;;;;;22.29;47.59;99178.44;5154300;27;20595;-55
2021/09/21 02:57:42;;;;;;;5.20;4.90;;;;;;;22.30;47.71;99182.75;5154332;27;20289;-53
2021/09/21 03:00:10;;;;;;;5.20;4.80;;;;;;;22.29;47.71;99183.75;5154085;27;20189;-54
2021/09/21 03:02:37;;;;;;;5.20;4.80;;;;;;;22.28;47.51;99179.44;5136066;27;20643;-53
2021/09/21 03:05:09;;;;;;;5.33;4.93;;;;;;;22.29;47.88;99181.09;5154107;27;20242;-54
2021/09/21 03:07:39;;;;;;;5.57;5.17;;;;;;;22.26;47.65;99181.41;5154228;27;20249;-54
2021/09/21 03:13:21;;;;;;;5.17;4.77;;;;;;;22.24;47.62;99178.94;5052016;28;20200;-52
2021/09/21 03:18:33;;;;;;;5.30;4.90;;;;;;;22.25;47.90;99174.44;5122891;27;20203;-54
2021/09/21 03:20:59;;;;;;;5.77;5.27;;;;;;;22.25;47.90;99177.94;5157645;27;20592;-53
2021/09/21 03:23:26;;;;;;;5.37;4.97;;;;;;;22.25;47.77;99179.75;5157898;27;20186;-53
2021/09/21 03:25:53;;;;;;;5.50;5.10;;;;;;;22.24;47.75;99178.09;5157520;27;20186;-54
2021/09/21 03:28:20;;;;;;;5.40;5.00;;;;;;;22.24;47.74;99191.38;5158002;27;20206;-52
2021/09/21 03:30:46;;;;;;;5.27;4.87;;;;;;;22.24;47.54;99196.69;5157469;27;20233;-52
2021/09/21 03:33:13;;;;;;;5.30;4.90;;;;;;;22.24;47.53;99186.91;5157464;27;20182;-52
2021/09/21 03:35:40;;;;;;;5.30;4.90;;;;;;;22.23;47.86;99197.69;5157428;27;20186;-53
2021/09/21 03:38:07;;;;;;;5.17;4.77;;;;;;;22.24;47.84;99199.34;5157342;27;20182;-54
2021/09/21 03:40:34;;;;;;;5.30;4.90;;;;;;;22.27;47.66;99188.38;5157598;27;20190;-52
2021/09/21 03:43:00;;;;;;;5.13;4.73;;;;;;;22.24;47.65;99196.69;5157220;27;20186;-54
2021/09/21 03:45:27;;;;;;;5.50;5.00;;;;;;;22.28;47.51;99187.41;5157225;27;20196;-52
2021/09/21 03:47:54;;;;;;;5.07;4.67;;;;;;;22.30;47.65;99204.03;5156975;27;20259;-51
2021/09/21 03:50:21;;;;;;;5.80;5.40;;;;;;;22.31;47.40;99216.31;5156997;27;20194;-54
2021/09/21 03:52:47;;;;;;;5.17;4.77;;;;;;;22.30;47.68;99213.81;5157080;27;20186;-52
2021/09/21 03:55:16;;;;;;;5.33;4.93;;;;;;;22.32;47.61;99219.78;5157367;27;20709;-53
2021/09/21 03:57:43;;;;;;;5.03;4.63;;;;;;;22.32;47.37;99223.28;5156948;27;20210;-54
2021/09/21 04:00:11;;;;;;;5.90;5.40;;;;;;;22.36;47.12;99224.63;5156898;27;20188;-53
2021/09/21 04:02:38;;;;;;;5.33;4.93;;;;;;;22.34;47.31;99226.63;5157154;27;20560;-52
2021/09/21 04:05:06;;;;;;;5.27;4.87;;;;;;;22.31;47.29;99231.44;5156787;27;20233;-52
2021/09/21 04:07:34;;;;;;;5.50;5.10;;;;;;;22.33;47.36;99232.09;5156871;27;20209;-52
2021/09/21 04:10:01;;;;;;;5.60;5.07;;;;;;;22.33;47.42;99234.75;5157093;27;20198;-54
2021/09/21 04:12:27;;;;;;;5.10;4.80;;;;;;;22.33;47.34;99230.28;5156702;27;20194;-53
2021/09/21 04:14:54;;;;;;;5.03;4.63;;;;;;;22.35;47.34;99230.94;5156951;27;20223;-52
2021/09/21 04:17:20;;;;;;;5.80;5.40;;;;;;;22.31;47.41;99234.94;5156786;27;20209;-52
2021/09/21 04:19:46;;;;;;;4.73;4.43;;;;;;;22.31;47.42;99239.41;5156505;27;20246;-52
2021/09/21 04:22:13;;;;;;;5.40;5.00;;;;;;;22.32;47.50;99236.59;5156487;27;20223;-53
2021/09/21 04:24:39;;;;;;;4.07;3.77;;;;;;;22.32;47.34;99238.41;5156473;27;20182;-52
2021/09/21 04:27:10;;;;;;;5.47;5.07;;;;;;;22.30;47.58;99230.63;5156400;27;20291;-52
2021/09/21 04:29:37;;;;;;;5.23;4.83;;;;;;;22.35;47.09;99233.59;5156286;27;20204;-53
2021/09/21 04:32:03;;;;;;;5.20;4.80;;;;;;;22.38;47.31;99243.06;5156265;27;20191;-52
2021/09/21 04:34:30;;;;;;;5.20;4.80;;;;;;;22.32;47.32;99241.91;5156179;27;20648;-53
2021/09/21 04:36:58;;;;;;;5.10;4.70;;;;;;;22.30;47.57;99245.72;5156277;27;20693;-53
2021/09/21 04:39:25;;;;;;;5.30;4.90;;;;;;;22.30;47.17;99246.56;5156581;27;20188;-54
2021/09/21 04:41:52;;;;;;;5.30;4.90;;;;;;;22.27;47.35;99252.19;5156513;27;20246;-53
2021/09/21 04:44:19;;;;;;;4.87;4.57;;;;;;;22.23;47.50;99251.72;5155972;27;20202;-53
2021/09/21 04:46:46;;;;;;;4.57;4.27;;;;;;;22.27;47.46;99241.56;5156081;27;20227;-55
2021/09/21 04:49:13;;;;;;;5.53;5.10;;;;;;;22.27;47.23;99253.03;5155900;27;20201;-52
2021/09/21 04:51:41;;;;;;;5.67;5.27;;;;;;;22.27;47.55;99261.00;5155834;27;20268;-54
2021/09/21 04:54:08;;;;;;;4.90;4.60;;;;;;;22.28;47.41;99251.22;5155809;27;20190;-52
2021/09/21 04:56:34;;;;;;;4.93;4.53;;;;;;;22.25;47.37;99243.56;5155670;27;20210;-53
2021/09/21 04:59:01;;;;;;;4.83;4.53;;;;;;;22.26;47.40;99251.38;5137161;27;20551;-53
2021/09/21 05:01:28;;;;;;;4.83;4.53;;;;;;;22.26;47.59;99247.88;5137298;27;20190;-52
2021/09/21 05:03:54;;;;;;;5.00;4.50;;;;;;;22.25;47.43;99259.50;5155749;27;20252;-52
2021/09/21 05:06:21;;;;;;;5.13;4.73;;;;;;;22.24;47.35;99257.84;5155482;27;20208;-53
2021/09/21 05:08:47;;;;;;;5.50;5.10;;;;;;;22.23;47.20;99262.34;5155492;27;20272;-55
2021/09/21 05:11:14;;;;;;;4.60;4.30;;;;;;;22.23;47.45;99266.81;5155426;27;20657;-53
2021/09/21 05:13:40;;;;;;;5.03;4.73;;;;;;;22.23;47.46;99269.47;5155314;27;20653;-53
2021/09/21 05:16:07;;;;;;;5.23;4.90;;;;;;;22.24;47.49;99266.66;5155202;27;20601;-54
2021/09/21 05:18:33;;;;;;;4.83;4.53;;;;;;;22.19;47.62;99276.94;5155279;27;20189;-52
2021/09/21 05:21:00;;;;;;;5.33;4.93;;;;;;;22.20;47.64;99283.94;5155531;27;20201;-53
2021/09/21 05:23:27;;;;;;;5.17;4.80;;;;;;;22.25;47.44;99286.09;5155699;27;20194;-52
2021/09/21 05:25:53;;;;;;;5.20;4.80;;;;;;;22.30;47.41;99291.75;5155012;27;20245;-54
2021/09/21 05:28:20;;;;;;;5.40;5.00;;;;;;;22.37;47.22;99292.75;5155567;27;20198;-54
2021/09/21 05:30:46;;;;;;;5.37;4.97;;;;;;;22.39;47.22;99288.09;5155865;27;20555;-55
2021/09/21 05:33:13;;;;;;;4.60;4.30;;;;;;;22.45;47.29;99299.09;5155015;27;20181;-54
2021/09/21 05:35:39;;;;;;;5.40;5.00;;;;;;;22.51;47.11;99304.56;5154521;27;20194;-52
2021/09/21 05:38:06;;;;;;;5.13;4.63;;;;;;;22.51;47.22;99309.06;5154858;27;20209;-52
2021/09/21 05:40:32;;;;;;;5.27;4.87;;;;;;;22.51;47.06;99301.91;5155165;27;20185;-53
2021/09/21 05:42:59;;;;;;;5.50;5.10;;;;;;;22.53;47.14;99309.75;5154875;27;20742;-54
2021/09/21 05:45:26;;;;;;;5.07;4.67;;;;;;;22.50;47.17;99320.72;5155063;27;20590;-52
2021/09/21 05:47:54;;;;;;;5.37;4.87;;;;;;;22.52;46.99;99319.56;5154681;27;20227;-51
2021/09/21 05:50:21;;;;;;;5.80;5.20;;;;;;;22.56;47.26;99325.34;5154559;27;20209;-52
2021/09/21 05:52:48;;;;;;;8.13;4.53;;;;;;;22.59;46.99;99335.66;5154936;27;20211;-54
2021/09/21 05:55:14;;;;;;;5.07;4.57;;;;;;;22.68;46.90;99340.00;5154768;27;20185;-50
2021/09/21 05:57:43;;;;;;;5.23;4.73;;;;;;;22.78;46.63;99357.63;5154578;27;20621;-52
2021/09/21 06:00:11;;;;;;;5.67;4.87;;;;;;;22.81;46.78;99359.94;5155055;27;20193;-54
2021/09/21 06:02:40;;;;;;;4.80;4.40;;;;;;;22.83;46.77;99357.94;5154748;27;20254;-52
2021/09/21 06:05:08;;;;;;;5.27;4.83;;;;;;;22.87;46.67;99359.28;5154480;27;20182;-51
2021/09/21 06:07:35;;;;;;;5.30;4.83;;;;;;;22.86;46.74;99378.91;5154430;27;20324;-50
2021/09/21 06:10:02;;;;;;;5.03;4.63;;;;;;;22.90;46.64;99379.41;5154330;27;20213;-52
2021/09/21 06:12:29;;;;;;;5.10;4.70;;;;;;;22.82;46.96;99394.34;5154395;27;20182;-54
2021/09/21 06:14:55;;;;;;;5.50;4.80;;;;;;;22.83;46.83;99403.19;5154435;27;20222;-52
2021/09/21 06:17:21;;;;;;;5.50;4.70;;;;;;;22.85;46.94;99398.53;5154258;27;20205;-52
2021/09/21 06:19:48;;;;;;;4.60;4.30;;;;;;;22.87;47.08;99404.50;5154257;27;20186;-54
2021/09/21 06:22:14;;;;;;;6.23;4.90;;;;;;;22.90;46.68;99417.47;5154265;27;20661;-53
2021/09/21 06:24:41;;;;;;;4.87;4.47;;;;;;;22.89;46.75;99417.66;5154550;27;20194;-53
2021/09/21 06:27:07;;;;;;;5.03;4.63;;;;;;;22.83;46.88;99411.16;5154268;27;20621;-52
2021/09/21 06:29:34;;;;;;;7.07;4.80;;;;;;;22.76;47.00;99419.00;5154176;27;20685;-53
2021/09/21 06:32:00;;;;;;;6.03;4.80;;;;;;;22.74;47.02;99412.16;5154547;27;20190;-52
2021/09/21 06:34:27;;;;;;;5.07;4.50;;;;;;;22.68;47.03;99414.50;5154173;27;20235;-52
2021/09/21 06:36:54;;;;;;;5.57;5.00;;;;;;;22.71;47.08;99407.16;5118590;27;20213;-52
2021/09/21 06:39:21;;;;;;;5.37;4.93;;;;;;;22.71;47.07;99402.69;5154440;27;20657;-52
2021/09/21 06:41:49;;;;;;;4.53;4.23;;;;;;;22.72;46.94;99408.84;5154197;27;20662;-54
2021/09/21 06:44:16;;;;;;;5.97;5.13;;;;;;;22.73;47.02;99405.16;5154373;27;20661;-54
2021/09/21 06:46:42;;;;;;;4.83;4.53;;;;;;;22.75;46.94;99417.31;5154361;27;20262;-51
2021/09/21 06:49:10;;;;;;;5.37;4.80;;;;;;;22.76;46.73;99415.50;5157740;27;20210;-54
2021/09/21 06:51:36;;;;;;;5.03;4.63;;;;;;;22.79;46.85;99431.13;5158391;27;20194;-52
2021/09/21 06:54:03;;;;;;;5.63;5.23;;;;;;;22.81;46.63;99442.44;5158644;27;20182;-53
2021/09/21 06:56:30;;;;;;;5.00;4.60;;;;;;;22.74;46.76;99442.28;5157989;27;20209;-52
2021/09/21 06:58:57;;;;;;;5.50;4.93;;;;;;;22.72;46.67;99451.41;5158334;27;20232;-53
2021/09/21 07:01:26;;;;;;;5.27;4.83;;;;;;;22.72;46.67;99456.72;5157952;27;20721;-54
2021/09/21 07:03:53;;;;;;;6.47;5.23;;;;;;;22.69;46.79;99457.91;5157866;27;20553;-52
2021/09/21 07:06:19;;;;;;;5.27;4.87;;;;;;;22.66;46.55;99456.41;5158211;27;20198;-52
2021/09/21 07:08:46;;;;;;;5.30;4.80;;;;;;;22.60;46.81;99457.06;5158431;27;20186;-52
2021/09/21 07:11:13;;;;;;;4.93;4.63;;;;;;;22.59;46.78;99457.22;5157996;27;20231;-53
2021/09/21 07:13:40;;;;;;;4.90;4.60;;;;;;;22.53;46.67;99461.34;5158167;27;20246;-52
2021/09/21 07:16:07;;;;;;;5.20;4.80;;;;;;;22.51;46.81;99460.69;5157539;27;20210;-54
2021/09/21 07:18:34;;;;;;;5.70;5.20;;;;;;;22.50;46.72;99449.19;5157640;27;20186;-54
2021/09/21 07:21:00;;;;;;;4.77;4.37;;;;;;;22.46;46.85;99431.06;5158092;27;20541;-54
2021/09/21 07:23:27;;;;;;;5.13;4.73;;;;;;;22.47;47.02;99430.06;5158095;27;20737;-52
2021/09/21 07:25:53;;;;;;;5.30;4.90;;;;;;;22.46;46.78;99436.38;5157485;27;20186;-53
2021/09/21 07:28:20;;;;;;;4.93;4.53;;;;;;;22.51;46.89;99434.09;5157421;27;20261;-52
2021/09/21 07:30:46;;;;;;;5.00;4.60;;;;;;;22.47;46.74;99432.72;5157279;27;20227;-54
2021/09/21 07:33:15;;;;;;;5.50;5.10;;;;;;;22.46;46.86;99431.06;5157325;27;20185;-53
2021/09/21 07:35:42;;;;;;;5.27;4.87;;;;;;;22.49;46.72;99438.75;5157733;27;20648;-52
2021/09/21 07:38:09;;;;;;;5.33;4.93;;;;;;;22.52;46.57;99439.25;5157228;27;20569;-52
2021/09/21 07:40:36;;;;;;;4.73;4.43;;;;;;;22.52;46.72;99446.38;5157327;27;20724;-54
2021/09/21 07:43:05;;;;;;;4.93;4.63;;;;;;;22.52;46.47;99455.22;5157160;27;20185;-51
2021/09/21 07:45:33;;;;;;;5.30;4.90;;;;;;;22.53;46.37;99458.69;5157080;27;20182;-53
2021/09/21 07:48:01;;;;;;;4.73;4.43;;;;;;;22.50;46.63;99462.50;5156979;27;20202;-52
2021/09/21 07:50:28;;;;;;;5.60;5.20;;;;;;;22.40;46.82;99459.13;5156906;27;20704;-52
2021/09/21 07:52:55;;;;;;;5.47;5.07;;;;;;;22.36;46.80;99458.63;5157188;27;20243;-52
2021/09/21 07:55:23;;;;;;;4.90;4.50;;;;;;;22.34;46.79;99460.63;5157021;27;20179;-52
2021/09/21 07:57:50;;;;;;;5.13;4.73;;;;;;;22.33;46.61;99464.28;5156659;27;20693;-54
2021/09/21 08:00:17;;;;;;;4.80;4.40;;;;;;;;;;5156880;27;20540;-52
2021/09/21 08:02:44;;;;;;;4.83;4.53;;;;;;;22.37;46.59;99459.47;5156803;27;20217;-53
2021/09/21 08:05:12;;;;;;;4.60;4.30;;;;;;;22.32;46.78;99470.59;5156658;27;20197;-52
2021/09/21 08:07:41;;;;;;;4.60;4.30;;;;;;;22.33;46.56;99474.91;5156584;27;20204;-51
2021/09/21 08:10:09;;;;;;;4.50;4.10;;;;;;;22.37;46.64;99465.59;5156549;27;20754;-54
2021/09/21 08:12:36;;;;;;;5.03;4.60;;;;;;;22.36;46.53;99468.44;5156836;27;20288;-51
2021/09/21 08:15:03;;;;;;;5.20;4.70;;;;;;;22.36;46.61;99469.25;5137834;27;20204;-52
2021/09/21 08:17:30;;;;;;;4.93;4.53;;;;;;;22.37;46.53;99481.56;5156756;27;20605;-54
2021/09/21 08:19:56;;;;;;;4.70;4.40;;;;;;;22.35;46.49;99472.91;5156710;27;20185;-54
2021/09/21 08:22:23;;;;;;;5.20;4.80;;;;;;;22.37;46.47;99480.75;5156703;27;20186;-52
2021/09/21 08:24:50;;;;;;;4.60;4.30;;;;;;;22.40;46.41;99472.44;5156623;27;20793;-52
2021/09/21 08:27:17;;;;;;;5.10;4.70;;;;;;;22.43;46.27;99468.59;5156284;27;20205;-54
2021/09/21 08:29:44;;;;;;;5.10;4.73;;;;;;;22.44;46.49;99471.09;5156241;27;20198;-52
2021/09/21 08:32:10;;;;;;;4.53;4.23;;;;;;;22.51;46.09;99466.81;5156173;27;20238;-51
2021/09/21 08:34:37;;;;;;;5.00;4.70;;;;;;;22.50;45.96;99469.66;5156376;27;20178;-52
2021/09/21 08:37:05;;;;;;;4.90;4.53;;;;;;;22.53;46.17;99470.19;5156035;27;20303;-52
2021/09/21 08:39:32;;;;;;;4.73;4.40;;;;;;;22.57;45.91;99465.34;5156511;27;20178;-53
2021/09/21 08:41:58;;;;;;;4.97;4.60;;;;;;;22.60;46.02;99473.03;5155993;27;20215;-52
2021/09/21 08:44:25;;;;;;;4.43;4.13;;;;;;;22.60;45.86;99481.00;5155938;27;20721;-54
2021/09/21 08:46:56;;;;;;;4.80;4.40;;;;;;;22.64;45.75;99471.69;5155998;27;20205;-54
2021/09/21 08:49:22;;;;;;;4.57;4.17;;;;;;;22.66;45.46;99477.69;5155851;27;20201;-52
2021/09/21 08:51:49;;;;;;;4.83;4.43;;;;;;;22.65;45.84;99486.66;5155909;27;20304;-52
2021/09/21 08:54:15;;;;;;;4.83;4.53;;;;;;;22.64;45.67;99495.63;5155589;27;20234;-51
2021/09/21 08:56:43;;;;;;;4.87;4.57;;;;;;;22.63;45.56;99501.97;5155659;27;20625;-51
2021/09/21 08:59:11;;;;;;;4.60;4.30;;;;;;;22.64;45.79;99500.09;5155649;27;20550;-52
2021/09/21 09:01:49;;;;;;;4.77;4.47;;;;;;;22.66;45.56;99511.41;5155628;27;20182;-53
2021/09/21 09:04:17;;;;;;;4.53;4.23;;;;;;;22.64;45.93;99516.06;5155799;27;20252;-51
2021/09/21 09:06:47;;;;;;;4.57;4.27;;;;;;;22.64;45.74;99519.59;5155460;27;20278;-53
2021/09/21 09:09:16;;;;;;;4.43;4.13;;;;;;;22.65;45.47;99518.59;5155261;27;20238;-51
2021/09/21 09:11:46;;;;;;;4.87;4.57;;;;;;;22.66;45.61;99520.25;5154706;27;20564;-52
2021/09/21 09:14:21;;;;;;;4.50;4.20;;;;;;;22.71;45.31;99521.56;5155688;27;20679;-52
2021/09/21 09:16:58;;;;;;;4.53;4.23;;;;;;;22.72;45.45;99517.91;5155197;27;20247;-53
2021/09/21 09:19:32;;;;;;;4.40;4.00;;;;;;;22.74;45.27;99519.44;5155590;27;20172;-51
2021/09/21 09:22:17;;;;;;;4.30;4.00;;;;;;;22.76;45.47;99519.28;5155274;27;20632;-51
2021/09/21 09:24:51;;;;;;;4.40;4.10;;;;;;;22.77;45.19;99524.44;5155483;27;20193;-51
2021/09/21 09:27:19;;;;;;;4.10;3.80;;;;;;;22.76;45.17;99535.25;5155356;27;20204;-51
2021/09/21 09:29:54;;;;;;;4.27;3.97;;;;;;;22.73;45.24;99539.06;5155066;27;20220;-54
2021/09/21 09:32:20;;;;;;;4.37;4.07;;;;;;;22.76;45.20;99541.38;5155034;27;20196;-52
2021/09/21 09:34:47;;;;;;;4.30;4.00;;;;;;;22.75;45.26;99547.72;5155324;27;20185;-51
2021/09/21 09:37:18;;;;;;;4.37;4.07;;;;;;;22.72;45.42;99541.88;5154989;27;20276;-51
2021/09/21 09:39:47;;;;;;;4.47;4.17;;;;;;;22.71;45.23;99553.50;5137055;27;20254;-51
2021/09/21 09:42:14;;;;;;;4.10;3.80;;;;;;;22.68;45.24;99555.50;5154944;27;20186;-51
2021/09/21 09:44:43;;;;;;;4.63;4.23;;;;;;;22.58;45.42;99549.47;5154869;27;20196;-52
2021/09/21 09:47:09;;;;;;;4.03;3.73;;;;;;;22.57;45.30;99544.34;5154801;27;20258;-53
2021/09/21 09:49:38;;;;;;;4.10;3.80;;;;;;;22.56;45.30;99543.47;5154929;27;20250;-53
2021/09/21 09:52:11;;;;;;;3.80;3.60;;;;;;;22.57;44.95;99545.16;5155030;27;20599;-51
2021/09/21 09:54:40;;;;;;;4.37;3.97;;;;;;;22.57;44.78;99549.66;5154733;27;20193;-52
2021/09/21 09:57:09;;;;;;;4.23;3.93;;;;;;;22.56;45.12;99548.00;5154738;27;20201;-51
2021/09/21 09:59:37;;;;;;;4.57;4.17;;;;;;;22.61;44.63;99551.84;5154850;27;20552;-51
2021/09/21 10:02:04;;;;;;;4.33;4.03;;;;;;;22.63;44.38;99549.84;5154660;27;20185;-51
2021/09/21 10:04:31;;;;;;;4.30;4.00;;;;;;;22.65;44.22;99550.50;5154536;27;20186;-51
2021/09/21 10:06:59;;;;;;;4.07;3.77;;;;;;;22.65;44.08;99547.00;5154827;27;20610;-53
2021/09/21 10:09:26;;;;;;;4.17;3.87;;;;;;;22.67;44.12;99550.34;5154435;27;20185;-51
2021/09/21 10:11:59;;;;;;;4.17;3.87;;;;;;;22.69;43.90;99553.69;5154470;27;20235;-51
2021/09/21 10:14:26;;;;;;;4.20;3.90;;;;;;;22.68;44.18;99552.84;5153872;27;20173;-53
2021/09/21 10:17:04;;;;;;;4.40;4.00;;;;;;;22.68;44.18;99555.50;5155106;27;20565;-51
2021/09/21 10:19:32;;;;;;;4.30;4.00;;;;;;;22.69;44.02;99564.34;5154885;27;20185;-53
2021/09/21 10:21:59;;;;;;;4.30;4.00;;;;;;;22.70;44.28;99555.34;5156338;27;20205;-54
2021/09/21 10:24:39;;;;;;;4.37;4.07;;;;;;;22.71;43.97;99556.16;5159043;27;20191;-51
2021/09/21 10:27:16;;;;;;;4.20;3.90;;;;;;;22.61;44.23;99562.47;5159275;27;20221;-52
2021/09/21 10:29:43;;;;;;;4.43;4.13;;;;;;;22.58;44.25;99560.13;5158613;27;20257;-52
2021/09/21 10:32:16;;;;;;;4.17;3.87;;;;;;;22.59;44.31;99559.13;5158616;27;20194;-54
2021/09/21 10:34:46;;;;;;;4.10;3.80;;;;;;;22.58;44.02;99562.78;5158812;27;20176;-54
2021/09/21 10:37:16;;;;;;;3.73;3.53;;;;;;;22.56;44.48;99555.97;5139856;27;20623;-52
2021/09/21 10:39:43;;;;;;;4.33;4.03;;;;;;;22.53;44.49;99547.31;5158515;27;20190;-54
2021/09/21 10:42:13;;;;;;;4.27;3.97;;;;;;;22.54;44.21;99538.34;5158496;27;20182;-54
2021/09/21 10:44:51;;;;;;;3.67;3.47;;;;;;;22.55;44.44;99547.13;5158519;27;20737;-52
2021/09/21 10:47:23;;;;;;;4.20;3.90;;;;;;;22.57;44.12;99533.69;5158341;27;20216;-55
2021/09/21 10:49:54;;;;;;;4.97;4.60;;;;;;;22.53;43.63;99538.50;5140536;27;20186;-52
2021/09/21 10:52:26;;;;;;;4.77;4.47;;;;;;;22.46;42.03;99526.81;5158165;27;20182;-54
2021/09/21 10:54:57;;;;;;;5.20;4.70;;;;;;;22.37;40.92;99524.09;5158308;27;20634;-53
2021/09/21 10:57:58;;;;;;;5.13;4.77;;;;;;;22.33;40.13;99516.59;5158149;27;20256;-52
2021/09/21 11:00:25;;;;;;;5.27;4.87;;;;;;;22.30;40.00;99522.25;5103317;27;20201;-55
2021/09/21 11:02:52;;;;;;;5.17;4.77;;;;;;;22.25;39.93;99520.06;5157912;27;20181;-52
2021/09/21 11:05:29;;;;;;;5.50;5.10;;;;;;;22.21;40.23;99513.41;5157852;27;20595;-52
2021/09/21 11:08:05;;;;;;;5.97;5.57;;;;;;;22.22;40.07;99517.72;5157833;27;20730;-53
2021/09/21 11:10:35;;;;;;;5.50;5.07;;;;;;;22.18;39.86;99516.38;5158236;27;20573;-54
2021/09/21 11:13:08;;;;;;;5.67;5.17;;;;;;;22.20;39.72;99511.75;5157756;27;20606;-52
2021/09/21 11:15:35;;;;;;;5.40;5.00;;;;;;;22.17;39.56;99514.72;5157579;27;20194;-52
2021/09/21 11:18:06;;;;;;;5.83;5.43;;;;;;;22.17;39.43;99517.38;5158207;27;20212;-53
2021/09/21 11:20:42;;;;;;;5.90;5.50;;;;;;;22.11;39.05;99522.34;5158005;27;20618;-54
2021/09/21 11:23:10;;;;;;;5.57;5.03;;;;;;;22.11;38.94;99529.47;5158260;27;20177;-55
2021/09/21 11:25:37;;;;;;;5.60;5.10;;;;;;;22.12;38.86;99529.34;5157552;27;20190;-54
2021/09/21 11:28:03;;;;;;;5.40;5.00;;;;;;;22.14;39.03;99533.66;5157515;27;20657;-53
2021/09/21 11:30:30;;;;;;;6.00;5.50;;;;;;;22.12;38.97;99531.16;5157504;27;20205;-55
2021/09/21 11:32:56;;;;;;;5.60;5.20;;;;;;;22.08;38.91;99537.78;5156840;27;20182;-52
2021/09/21 11:35:23;;;;;;;5.87;5.37;;;;;;;22.05;38.94;99538.09;5157412;27;20215;-52
2021/09/21 11:37:51;;;;;;;5.50;5.10;;;;;;;22.03;39.40;99546.22;5157455;27;20206;-55
2021/09/21 11:40:27;;;;;;;5.33;4.90;;;;;;;22.04;39.19;99545.22;5157423;27;20182;-54
2021/09/21 11:42:55;;;;;;;5.40;5.00;;;;;;;22.07;38.66;99544.91;5157949;27;20174;-52
2021/09/21 11:45:23;;;;;;;5.77;5.23;;;;;;;22.04;38.73;99550.53;5157246;27;20196;-54